Huvudsida
METAR-TAF:

METAR-TAF

Flygplatser :

Atyraws flygplats

Atyraw, Kazakstan

latitud: 47-07-19N, longitud: 051-49-17E, höjd: -22 m

Aktuellt väderrapport

Denna rapport gjordes för 20 minuter sedan, klockan 08:30 UTC
Vind 10 kt från ost
Temperatur 19°C
Fuktighet 37%
Tryck 1019 hPa
Sikt 10 km eller mer
Inga moln under 1 500 m eller inga cumulonimbus

METAR: UATG 210830Z 09005MPS CAVOK 19/04 Q1019 R14/CLRD70 NOSIG RMK QFE766/1022

Tid: 14:50 (08:50 UTC)

Väderprognos

Denna rapport gjordes för 3 timmar och 49 minuter sedan, klockan 05:01 UTC
Prognos gäller från 21 kl. 06 UTC till 22 kl. 06 UTC
Vind 12 kt från ost
Sikt 10 km eller mer
Spridda moln på en höjd av 3300 ft

TAF: UATG 210501Z 2106/2206 09006MPS 9999 SCT033 TX19/2110Z TN04/2203Z

Aktuella väderrapporter och prognoser från 4000 flygplatser (METAR- och TAF-rapporter).

De tillgängliga stationerna syns som gula och röda prickar på kartan.

För musen över prickarna för att se namnen på stationerna.

Klicka sedan för att få väderrapporter och prognoser.

För att ändra kartan: Klicka på de gröna knapparna med ett svart kors på för att zooma in; den gröna knappen med ett streck på för att zooma ut; eller på de gröna pilarna för angränsande kartor.


METAR-TAF: